sensor_id;sensor_type;location;lat;lon;timestamp;P1;durP1;ratioP1;P2;durP2;ratioP2
56141;SDS011;42018;48.588;10.836;2022-07-24T00:02:17;4.90;;;3.28;;
56141;SDS011;42018;48.588;10.836;2022-07-24T00:05:03;5.45;;;3.50;;
56141;SDS011;42018;48.588;10.836;2022-07-24T00:07:49;5.95;;;3.47;;
56141;SDS011;42018;48.588;10.836;2022-07-24T00:10:34;4.57;;;3.60;;
56141;SDS011;42018;48.588;10.836;2022-07-24T00:13:20;4.47;;;3.30;;
56141;SDS011;42018;48.588;10.836;2022-07-24T00:16:05;5.10;;;3.72;;
56141;SDS011;42018;48.588;10.836;2022-07-24T00:18:51;4.50;;;3.42;;
56141;SDS011;42018;48.588;10.836;2022-07-24T00:21:37;5.05;;;3.63;;
56141;SDS011;42018;48.588;10.836;2022-07-24T00:24:22;5.70;;;3.92;;
56141;SDS011;42018;48.588;10.836;2022-07-24T00:27:07;6.72;;;4.20;;
56141;SDS011;42018;48.588;10.836;2022-07-24T00:29:53;6.68;;;3.90;;
56141;SDS011;42018;48.588;10.836;2022-07-24T00:32:38;5.35;;;4.13;;
56141;SDS011;42018;48.588;10.836;2022-07-24T00:35:24;5.30;;;4.10;;
56141;SDS011;42018;48.588;10.836;2022-07-24T00:38:09;5.13;;;3.80;;
56141;SDS011;42018;48.588;10.836;2022-07-24T00:40:55;5.05;;;3.97;;
56141;SDS011;42018;48.588;10.836;2022-07-24T00:46:48;4.88;;;3.72;;
56141;SDS011;42018;48.588;10.836;2022-07-24T00:49:33;4.97;;;3.67;;
56141;SDS011;42018;48.588;10.836;2022-07-24T00:52:18;5.20;;;3.60;;
56141;SDS011;42018;48.588;10.836;2022-07-24T00:55:04;4.80;;;3.78;;
56141;SDS011;42018;48.588;10.836;2022-07-24T00:57:50;4.82;;;3.80;;
56141;SDS011;42018;48.588;10.836;2022-07-24T01:00:35;5.18;;;4.05;;
56141;SDS011;42018;48.588;10.836;2022-07-24T01:03:21;5.63;;;3.97;;
56141;SDS011;42018;48.588;10.836;2022-07-24T01:06:06;4.45;;;3.50;;
56141;SDS011;42018;48.588;10.836;2022-07-24T01:08:52;4.90;;;3.60;;
56141;SDS011;42018;48.588;10.836;2022-07-24T01:11:38;4.93;;;3.63;;
56141;SDS011;42018;48.588;10.836;2022-07-24T01:14:25;5.43;;;4.40;;
56141;SDS011;42018;48.588;10.836;2022-07-24T01:17:10;5.85;;;4.40;;
56141;SDS011;42018;48.588;10.836;2022-07-24T01:19:56;6.07;;;4.30;;
56141;SDS011;42018;48.588;10.836;2022-07-24T01:22:42;5.18;;;4.20;;
56141;SDS011;42018;48.588;10.836;2022-07-24T01:25:28;6.32;;;4.30;;
56141;SDS011;42018;48.588;10.836;2022-07-24T01:28:14;5.38;;;4.00;;
56141;SDS011;42018;48.588;10.836;2022-07-24T01:30:59;5.00;;;4.20;;
56141;SDS011;42018;48.588;10.836;2022-07-24T01:33:44;4.78;;;4.10;;
56141;SDS011;42018;48.588;10.836;2022-07-24T01:36:30;4.70;;;3.83;;
56141;SDS011;42018;48.588;10.836;2022-07-24T01:39:16;4.93;;;3.80;;
56141;SDS011;42018;48.588;10.836;2022-07-24T01:42:01;4.65;;;3.90;;
56141;SDS011;42018;48.588;10.836;2022-07-24T01:44:47;5.18;;;3.40;;
56141;SDS011;42018;48.588;10.836;2022-07-24T01:47:32;4.63;;;3.85;;
56141;SDS011;42018;48.588;10.836;2022-07-24T01:50:18;4.85;;;3.83;;
56141;SDS011;42018;48.588;10.836;2022-07-24T01:53:03;4.93;;;3.78;;
56141;SDS011;42018;48.588;10.836;2022-07-24T01:55:49;4.85;;;3.90;;
56141;SDS011;42018;48.588;10.836;2022-07-24T01:58:36;4.80;;;3.65;;
56141;SDS011;42018;48.588;10.836;2022-07-24T02:01:24;5.35;;;3.97;;
56141;SDS011;42018;48.588;10.836;2022-07-24T02:04:10;4.70;;;3.85;;
56141;SDS011;42018;48.588;10.836;2022-07-24T02:06:55;4.75;;;3.80;;
56141;SDS011;42018;48.588;10.836;2022-07-24T02:09:41;5.15;;;3.90;;
56141;SDS011;42018;48.588;10.836;2022-07-24T02:12:26;5.03;;;4.18;;
56141;SDS011;42018;48.588;10.836;2022-07-24T02:15:12;4.72;;;4.10;;
56141;SDS011;42018;48.588;10.836;2022-07-24T02:17:58;4.50;;;3.85;;
56141;SDS011;42018;48.588;10.836;2022-07-24T02:20:45;4.75;;;3.90;;
56141;SDS011;42018;48.588;10.836;2022-07-24T02:23:30;5.03;;;4.10;;
56141;SDS011;42018;48.588;10.836;2022-07-24T02:26:17;6.38;;;4.43;;
56141;SDS011;42018;48.588;10.836;2022-07-24T02:29:02;5.53;;;4.95;;
56141;SDS011;42018;48.588;10.836;2022-07-24T02:31:48;5.15;;;4.63;;
56141;SDS011;42018;48.588;10.836;2022-07-24T02:34:33;5.55;;;5.00;;
56141;SDS011;42018;48.588;10.836;2022-07-24T02:37:19;6.28;;;4.60;;
56141;SDS011;42018;48.588;10.836;2022-07-24T02:40:05;5.78;;;4.50;;
56141;SDS011;42018;48.588;10.836;2022-07-24T02:42:52;5.93;;;4.45;;
56141;SDS011;42018;48.588;10.836;2022-07-24T02:45:37;6.38;;;4.45;;
56141;SDS011;42018;48.588;10.836;2022-07-24T02:48:23;4.95;;;4.05;;
56141;SDS011;42018;48.588;10.836;2022-07-24T02:51:08;5.40;;;4.22;;
56141;SDS011;42018;48.588;10.836;2022-07-24T02:53:55;5.30;;;4.20;;
56141;SDS011;42018;48.588;10.836;2022-07-24T02:56:40;5.05;;;3.85;;
56141;SDS011;42018;48.588;10.836;2022-07-24T02:59:26;5.38;;;4.13;;
56141;SDS011;42018;48.588;10.836;2022-07-24T03:02:11;6.97;;;4.90;;
56141;SDS011;42018;48.588;10.836;2022-07-24T03:04:56;5.13;;;4.30;;
56141;SDS011;42018;48.588;10.836;2022-07-24T03:07:42;5.28;;;4.35;;
56141;SDS011;42018;48.588;10.836;2022-07-24T03:10:28;6.63;;;4.28;;
56141;SDS011;42018;48.588;10.836;2022-07-24T03:13:13;5.47;;;4.18;;
56141;SDS011;42018;48.588;10.836;2022-07-24T03:15:58;5.55;;;4.50;;
56141;SDS011;42018;48.588;10.836;2022-07-24T03:18:44;5.50;;;4.18;;
56141;SDS011;42018;48.588;10.836;2022-07-24T03:21:30;5.10;;;4.28;;
56141;SDS011;42018;48.588;10.836;2022-07-24T03:24:16;4.85;;;4.20;;
56141;SDS011;42018;48.588;10.836;2022-07-24T03:27:01;5.15;;;4.40;;
56141;SDS011;42018;48.588;10.836;2022-07-24T03:29:47;4.75;;;4.10;;
56141;SDS011;42018;48.588;10.836;2022-07-24T03:32:32;5.85;;;4.32;;
56141;SDS011;42018;48.588;10.836;2022-07-24T03:35:18;5.53;;;4.07;;
56141;SDS011;42018;48.588;10.836;2022-07-24T03:38:03;5.35;;;4.18;;
56141;SDS011;42018;48.588;10.836;2022-07-24T03:40:49;5.15;;;4.25;;
56141;SDS011;42018;48.588;10.836;2022-07-24T03:43:34;5.30;;;4.63;;
56141;SDS011;42018;48.588;10.836;2022-07-24T03:46:19;5.78;;;4.63;;
56141;SDS011;42018;48.588;10.836;2022-07-24T03:49:05;5.30;;;4.70;;
56141;SDS011;42018;48.588;10.836;2022-07-24T03:51:50;5.03;;;4.10;;
56141;SDS011;42018;48.588;10.836;2022-07-24T03:54:36;4.68;;;3.88;;
56141;SDS011;42018;48.588;10.836;2022-07-24T03:57:21;5.20;;;4.57;;
56141;SDS011;42018;48.588;10.836;2022-07-24T04:00:07;5.45;;;4.30;;
56141;SDS011;42018;48.588;10.836;2022-07-24T04:02:54;5.10;;;4.32;;
56141;SDS011;42018;48.588;10.836;2022-07-24T04:05:39;5.82;;;4.70;;
56141;SDS011;42018;48.588;10.836;2022-07-24T04:08:24;5.35;;;4.30;;
56141;SDS011;42018;48.588;10.836;2022-07-24T04:11:10;5.10;;;4.30;;
56141;SDS011;42018;48.588;10.836;2022-07-24T04:13:55;5.10;;;4.10;;
56141;SDS011;42018;48.588;10.836;2022-07-24T04:16:41;4.82;;;4.07;;
56141;SDS011;42018;48.588;10.836;2022-07-24T04:19:26;5.68;;;4.50;;
56141;SDS011;42018;48.588;10.836;2022-07-24T04:22:11;5.55;;;4.78;;
56141;SDS011;42018;48.588;10.836;2022-07-24T04:24:57;4.90;;;3.90;;
56141;SDS011;42018;48.588;10.836;2022-07-24T04:27:42;5.03;;;4.45;;
56141;SDS011;42018;48.588;10.836;2022-07-24T04:30:31;6.65;;;5.13;;
56141;SDS011;42018;48.588;10.836;2022-07-24T04:33:17;5.05;;;4.10;;
56141;SDS011;42018;48.588;10.836;2022-07-24T04:36:03;5.28;;;4.65;;
56141;SDS011;42018;48.588;10.836;2022-07-24T04:38:49;5.07;;;4.40;;
56141;SDS011;42018;48.588;10.836;2022-07-24T04:41:35;5.57;;;4.93;;
56141;SDS011;42018;48.588;10.836;2022-07-24T04:44:20;5.22;;;4.25;;
56141;SDS011;42018;48.588;10.836;2022-07-24T04:47:06;6.55;;;4.57;;
56141;SDS011;42018;48.588;10.836;2022-07-24T04:49:51;5.40;;;4.70;;
56141;SDS011;42018;48.588;10.836;2022-07-24T04:52:36;5.32;;;4.65;;
56141;SDS011;42018;48.588;10.836;2022-07-24T04:55:22;5.30;;;4.72;;
56141;SDS011;42018;48.588;10.836;2022-07-24T04:58:07;5.55;;;4.60;;
56141;SDS011;42018;48.588;10.836;2022-07-24T05:00:53;5.80;;;5.20;;
56141;SDS011;42018;48.588;10.836;2022-07-24T05:03:38;6.38;;;5.13;;
56141;SDS011;42018;48.588;10.836;2022-07-24T05:06:24;6.40;;;5.15;;
56141;SDS011;42018;48.588;10.836;2022-07-24T05:09:10;5.30;;;4.80;;
56141;SDS011;42018;48.588;10.836;2022-07-24T05:11:55;5.45;;;4.80;;
56141;SDS011;42018;48.588;10.836;2022-07-24T05:14:41;6.07;;;5.10;;
56141;SDS011;42018;48.588;10.836;2022-07-24T05:17:26;5.63;;;5.03;;
56141;SDS011;42018;48.588;10.836;2022-07-24T05:20:12;5.32;;;4.82;;
56141;SDS011;42018;48.588;10.836;2022-07-24T05:22:57;6.00;;;4.95;;
56141;SDS011;42018;48.588;10.836;2022-07-24T05:25:43;5.20;;;4.60;;
56141;SDS011;42018;48.588;10.836;2022-07-24T05:28:29;6.63;;;4.70;;
56141;SDS011;42018;48.588;10.836;2022-07-24T05:31:14;5.97;;;5.38;;
56141;SDS011;42018;48.588;10.836;2022-07-24T05:34:00;6.00;;;5.40;;
56141;SDS011;42018;48.588;10.836;2022-07-24T05:36:49;6.47;;;5.77;;
56141;SDS011;42018;48.588;10.836;2022-07-24T05:39:35;6.20;;;5.60;;
56141;SDS011;42018;48.588;10.836;2022-07-24T05:42:20;6.75;;;6.07;;
56141;SDS011;42018;48.588;10.836;2022-07-24T05:45:06;6.13;;;5.53;;
56141;SDS011;42018;48.588;10.836;2022-07-24T05:47:51;5.85;;;5.22;;
56141;SDS011;42018;48.588;10.836;2022-07-24T05:50:37;7.07;;;5.65;;
56141;SDS011;42018;48.588;10.836;2022-07-24T05:53:22;6.78;;;5.88;;
56141;SDS011;42018;48.588;10.836;2022-07-24T05:56:08;6.28;;;5.57;;
56141;SDS011;42018;48.588;10.836;2022-07-24T05:58:53;6.05;;;5.45;;
56141;SDS011;42018;48.588;10.836;2022-07-24T06:01:39;6.60;;;6.00;;
56141;SDS011;42018;48.588;10.836;2022-07-24T06:04:24;6.78;;;6.07;;
56141;SDS011;42018;48.588;10.836;2022-07-24T06:07:10;6.90;;;6.20;;
56141;SDS011;42018;48.588;10.836;2022-07-24T06:09:55;5.95;;;4.95;;
56141;SDS011;42018;48.588;10.836;2022-07-24T06:12:41;6.78;;;6.07;;
56141;SDS011;42018;48.588;10.836;2022-07-24T06:15:27;6.30;;;5.70;;
56141;SDS011;42018;48.588;10.836;2022-07-24T06:18:12;5.82;;;5.18;;
56141;SDS011;42018;48.588;10.836;2022-07-24T06:20:58;7.15;;;6.47;;
56141;SDS011;42018;48.588;10.836;2022-07-24T06:23:43;6.07;;;5.43;;
56141;SDS011;42018;48.588;10.836;2022-07-24T06:26:28;6.60;;;5.90;;
56141;SDS011;42018;48.588;10.836;2022-07-24T06:29:14;6.93;;;5.80;;
56141;SDS011;42018;48.588;10.836;2022-07-24T06:31:59;5.60;;;5.00;;
56141;SDS011;42018;48.588;10.836;2022-07-24T06:34:45;6.07;;;5.40;;
56141;SDS011;42018;48.588;10.836;2022-07-24T06:37:30;6.20;;;5.60;;
56141;SDS011;42018;48.588;10.836;2022-07-24T06:40:16;6.10;;;5.50;;
56141;SDS011;42018;48.588;10.836;2022-07-24T06:43:02;6.35;;;5.50;;
56141;SDS011;42018;48.588;10.836;2022-07-24T06:45:48;6.65;;;5.65;;
56141;SDS011;42018;48.588;10.836;2022-07-24T06:48:33;5.20;;;4.70;;
56141;SDS011;42018;48.588;10.836;2022-07-24T06:51:19;6.20;;;5.60;;
56141;SDS011;42018;48.588;10.836;2022-07-24T06:54:04;5.85;;;5.25;;
56141;SDS011;42018;48.588;10.836;2022-07-24T06:56:50;6.22;;;5.20;;
56141;SDS011;42018;48.588;10.836;2022-07-24T06:59:35;6.53;;;5.82;;
56141;SDS011;42018;48.588;10.836;2022-07-24T07:02:20;6.88;;;5.50;;
56141;SDS011;42018;48.588;10.836;2022-07-24T07:05:07;7.43;;;5.85;;
56141;SDS011;42018;48.588;10.836;2022-07-24T07:07:53;6.32;;;5.72;;
56141;SDS011;42018;48.588;10.836;2022-07-24T07:10:38;5.60;;;5.05;;
56141;SDS011;42018;48.588;10.836;2022-07-24T07:13:24;6.22;;;5.28;;
56141;SDS011;42018;48.588;10.836;2022-07-24T07:16:09;6.22;;;5.63;;
56141;SDS011;42018;48.588;10.836;2022-07-24T07:18:54;5.65;;;5.05;;
56141;SDS011;42018;48.588;10.836;2022-07-24T07:21:40;5.32;;;4.72;;
56141;SDS011;42018;48.588;10.836;2022-07-24T07:24:25;5.88;;;5.28;;
56141;SDS011;42018;48.588;10.836;2022-07-24T07:27:11;6.07;;;5.32;;
56141;SDS011;42018;48.588;10.836;2022-07-24T07:29:56;6.15;;;5.28;;
56141;SDS011;42018;48.588;10.836;2022-07-24T07:32:42;5.15;;;4.63;;
56141;SDS011;42018;48.588;10.836;2022-07-24T07:35:27;6.25;;;5.03;;
56141;SDS011;42018;48.588;10.836;2022-07-24T07:38:12;6.82;;;4.93;;
56141;SDS011;42018;48.588;10.836;2022-07-24T07:40:58;5.78;;;5.05;;
56141;SDS011;42018;48.588;10.836;2022-07-24T07:43:43;6.38;;;5.00;;
56141;SDS011;42018;48.588;10.836;2022-07-24T07:46:29;5.15;;;4.45;;
56141;SDS011;42018;48.588;10.836;2022-07-24T07:49:15;6.38;;;4.32;;
56141;SDS011;42018;48.588;10.836;2022-07-24T07:52:01;5.63;;;4.47;;
56141;SDS011;42018;48.588;10.836;2022-07-24T07:54:46;6.13;;;4.60;;
56141;SDS011;42018;48.588;10.836;2022-07-24T07:57:32;5.15;;;4.65;;
56141;SDS011;42018;48.588;10.836;2022-07-24T08:00:17;5.93;;;5.07;;
56141;SDS011;42018;48.588;10.836;2022-07-24T08:03:04;5.53;;;4.53;;
56141;SDS011;42018;48.588;10.836;2022-07-24T08:05:49;6.10;;;4.00;;
56141;SDS011;42018;48.588;10.836;2022-07-24T08:08:35;4.63;;;3.95;;
56141;SDS011;42018;48.588;10.836;2022-07-24T08:11:20;4.85;;;3.53;;
56141;SDS011;42018;48.588;10.836;2022-07-24T08:14:06;4.30;;;3.10;;
56141;SDS011;42018;48.588;10.836;2022-07-24T08:16:51;5.22;;;3.35;;
56141;SDS011;42018;48.588;10.836;2022-07-24T08:19:37;5.55;;;3.40;;
56141;SDS011;42018;48.588;10.836;2022-07-24T08:22:23;4.32;;;3.17;;
56141;SDS011;42018;48.588;10.836;2022-07-24T08:25:08;4.40;;;2.88;;
56141;SDS011;42018;48.588;10.836;2022-07-24T08:27:53;4.63;;;3.20;;
56141;SDS011;42018;48.588;10.836;2022-07-24T08:30:39;5.07;;;3.22;;
56141;SDS011;42018;48.588;10.836;2022-07-24T08:33:24;4.32;;;3.20;;
56141;SDS011;42018;48.588;10.836;2022-07-24T08:36:10;4.35;;;2.90;;
56141;SDS011;42018;48.588;10.836;2022-07-24T08:38:55;4.75;;;3.10;;
56141;SDS011;42018;48.588;10.836;2022-07-24T08:41:41;5.53;;;3.00;;
56141;SDS011;42018;48.588;10.836;2022-07-24T08:44:27;4.25;;;2.85;;
56141;SDS011;42018;48.588;10.836;2022-07-24T08:47:14;5.13;;;2.67;;
56141;SDS011;42018;48.588;10.836;2022-07-24T08:50:00;4.68;;;2.80;;
56141;SDS011;42018;48.588;10.836;2022-07-24T08:52:49;4.27;;;2.40;;
56141;SDS011;42018;48.588;10.836;2022-07-24T08:55:35;4.20;;;2.70;;
56141;SDS011;42018;48.588;10.836;2022-07-24T08:58:20;4.10;;;2.53;;
56141;SDS011;42018;48.588;10.836;2022-07-24T09:01:07;5.15;;;2.88;;
56141;SDS011;42018;48.588;10.836;2022-07-24T09:03:52;4.15;;;2.85;;
56141;SDS011;42018;48.588;10.836;2022-07-24T09:06:38;4.10;;;2.67;;
56141;SDS011;42018;48.588;10.836;2022-07-24T09:09:41;4.05;;;2.80;;
56141;SDS011;42018;48.588;10.836;2022-07-24T09:12:31;4.38;;;2.75;;
56141;SDS011;42018;48.588;10.836;2022-07-24T09:15:22;4.57;;;3.10;;
56141;SDS011;42018;48.588;10.836;2022-07-24T09:18:08;4.35;;;2.70;;
56141;SDS011;42018;48.588;10.836;2022-07-24T09:21:13;4.15;;;2.40;;
56141;SDS011;42018;48.588;10.836;2022-07-24T09:23:59;4.60;;;2.53;;
56141;SDS011;42018;48.588;10.836;2022-07-24T09:26:49;5.03;;;2.67;;
56141;SDS011;42018;48.588;10.836;2022-07-24T09:29:35;3.83;;;2.40;;
56141;SDS011;42018;48.588;10.836;2022-07-24T09:32:24;4.20;;;2.85;;
56141;SDS011;42018;48.588;10.836;2022-07-24T09:35:10;4.60;;;3.15;;
56141;SDS011;42018;48.588;10.836;2022-07-24T09:37:56;4.38;;;2.80;;
56141;SDS011;42018;48.588;10.836;2022-07-24T09:40:49;3.58;;;2.30;;
56141;SDS011;42018;48.588;10.836;2022-07-24T09:43:37;5.15;;;2.67;;
56141;SDS011;42018;48.588;10.836;2022-07-24T09:46:23;4.22;;;2.53;;
56141;SDS011;42018;48.588;10.836;2022-07-24T09:49:10;4.38;;;2.60;;
56141;SDS011;42018;48.588;10.836;2022-07-24T09:54:50;4.60;;;2.45;;
56141;SDS011;42018;48.588;10.836;2022-07-24T09:57:36;4.10;;;2.50;;
56141;SDS011;42018;48.588;10.836;2022-07-24T10:00:22;3.90;;;2.33;;
56141;SDS011;42018;48.588;10.836;2022-07-24T10:03:08;5.05;;;2.50;;
56141;SDS011;42018;48.588;10.836;2022-07-24T10:06:03;3.80;;;2.28;;
56141;SDS011;42018;48.588;10.836;2022-07-24T10:08:51;4.03;;;2.50;;
56141;SDS011;42018;48.588;10.836;2022-07-24T10:11:37;4.28;;;2.60;;
56141;SDS011;42018;48.588;10.836;2022-07-24T10:14:29;4.38;;;2.40;;
56141;SDS011;42018;48.588;10.836;2022-07-24T10:17:16;4.15;;;2.42;;
56141;SDS011;42018;48.588;10.836;2022-07-24T10:20:02;4.60;;;2.50;;
56141;SDS011;42018;48.588;10.836;2022-07-24T10:23:01;3.65;;;2.25;;
56141;SDS011;42018;48.588;10.836;2022-07-24T10:28:46;4.57;;;2.60;;
56141;SDS011;42018;48.588;10.836;2022-07-24T10:31:43;3.95;;;2.60;;
56141;SDS011;42018;48.588;10.836;2022-07-24T10:34:36;4.00;;;2.30;;
56141;SDS011;42018;48.588;10.836;2022-07-24T10:43:34;4.50;;;2.42;;
56141;SDS011;42018;48.588;10.836;2022-07-24T10:46:19;3.97;;;2.40;;
56141;SDS011;42018;48.588;10.836;2022-07-24T10:49:05;4.05;;;2.38;;
56141;SDS011;42018;48.588;10.836;2022-07-24T10:51:59;5.03;;;2.47;;
56141;SDS011;42018;48.588;10.836;2022-07-24T10:54:45;3.97;;;2.30;;
56141;SDS011;42018;48.588;10.836;2022-07-24T11:00:48;3.67;;;2.17;;
56141;SDS011;42018;48.588;10.836;2022-07-24T11:03:34;3.78;;;2.13;;
56141;SDS011;42018;48.588;10.836;2022-07-24T11:06:36;4.07;;;2.22;;
56141;SDS011;42018;48.588;10.836;2022-07-24T11:09:24;4.07;;;2.22;;
56141;SDS011;42018;48.588;10.836;2022-07-24T11:12:11;3.55;;;2.10;;
56141;SDS011;42018;48.588;10.836;2022-07-24T11:14:57;3.58;;;2.17;;
56141;SDS011;42018;48.588;10.836;2022-07-24T11:18:14;3.50;;;2.20;;
56141;SDS011;42018;48.588;10.836;2022-07-24T11:21:00;3.85;;;2.08;;
56141;SDS011;42018;48.588;10.836;2022-07-24T11:24:03;3.63;;;2.20;;
56141;SDS011;42018;48.588;10.836;2022-07-24T11:29:52;3.28;;;2.00;;
56141;SDS011;42018;48.588;10.836;2022-07-24T11:32:41;3.70;;;2.35;;
56141;SDS011;42018;48.588;10.836;2022-07-24T11:35:28;3.63;;;2.13;;
56141;SDS011;42018;48.588;10.836;2022-07-24T11:38:15;4.35;;;2.17;;
56141;SDS011;42018;48.588;10.836;2022-07-24T11:41:04;3.95;;;2.10;;
56141;SDS011;42018;48.588;10.836;2022-07-24T11:43:51;3.72;;;2.10;;
56141;SDS011;42018;48.588;10.836;2022-07-24T11:46:38;3.30;;;2.00;;
56141;SDS011;42018;48.588;10.836;2022-07-24T11:49:25;4.20;;;2.30;;
56141;SDS011;42018;48.588;10.836;2022-07-24T11:55:10;3.67;;;2.00;;
56141;SDS011;42018;48.588;10.836;2022-07-24T11:57:57;3.40;;;1.90;;
56141;SDS011;42018;48.588;10.836;2022-07-24T12:00:43;3.10;;;1.77;;
56141;SDS011;42018;48.588;10.836;2022-07-24T12:03:28;3.67;;;2.15;;
56141;SDS011;42018;48.588;10.836;2022-07-24T12:06:13;4.00;;;2.30;;
56141;SDS011;42018;48.588;10.836;2022-07-24T12:09:06;3.38;;;2.10;;
56141;SDS011;42018;48.588;10.836;2022-07-24T12:11:52;3.67;;;2.20;;
56141;SDS011;42018;48.588;10.836;2022-07-24T12:14:38;3.67;;;2.08;;
56141;SDS011;42018;48.588;10.836;2022-07-24T12:17:23;4.00;;;2.20;;
56141;SDS011;42018;48.588;10.836;2022-07-24T12:20:09;3.30;;;1.90;;
56141;SDS011;42018;48.588;10.836;2022-07-24T12:22:55;3.75;;;2.13;;
56141;SDS011;42018;48.588;10.836;2022-07-24T12:25:42;3.33;;;1.98;;
56141;SDS011;42018;48.588;10.836;2022-07-24T12:28:29;4.55;;;2.35;;
56141;SDS011;42018;48.588;10.836;2022-07-24T12:31:14;3.58;;;2.15;;
56141;SDS011;42018;48.588;10.836;2022-07-24T12:33:59;4.10;;;2.00;;
56141;SDS011;42018;48.588;10.836;2022-07-24T12:36:45;4.28;;;2.17;;
56141;SDS011;42018;48.588;10.836;2022-07-24T12:39:30;3.40;;;2.17;;
56141;SDS011;42018;48.588;10.836;2022-07-24T12:42:16;4.07;;;1.80;;
56141;SDS011;42018;48.588;10.836;2022-07-24T12:45:07;4.32;;;1.92;;
56141;SDS011;42018;48.588;10.836;2022-07-24T12:51:05;3.97;;;2.20;;
56141;SDS011;42018;48.588;10.836;2022-07-24T12:53:55;3.45;;;2.28;;
56141;SDS011;42018;48.588;10.836;2022-07-24T12:56:41;3.60;;;2.30;;
56141;SDS011;42018;48.588;10.836;2022-07-24T12:59:30;3.63;;;2.10;;
56141;SDS011;42018;48.588;10.836;2022-07-24T13:05:03;3.50;;;2.20;;
56141;SDS011;42018;48.588;10.836;2022-07-24T13:07:51;4.35;;;2.10;;
56141;SDS011;42018;48.588;10.836;2022-07-24T13:10:37;3.53;;;2.20;;
56141;SDS011;42018;48.588;10.836;2022-07-24T13:13:22;3.55;;;2.20;;
56141;SDS011;42018;48.588;10.836;2022-07-24T13:16:07;3.70;;;2.00;;
56141;SDS011;42018;48.588;10.836;2022-07-24T13:18:53;3.55;;;2.00;;
56141;SDS011;42018;48.588;10.836;2022-07-24T13:21:38;3.70;;;2.10;;
56141;SDS011;42018;48.588;10.836;2022-07-24T13:24:25;4.07;;;2.40;;
56141;SDS011;42018;48.588;10.836;2022-07-24T13:27:10;4.25;;;2.00;;
56141;SDS011;42018;48.588;10.836;2022-07-24T13:30:02;3.92;;;2.10;;
56141;SDS011;42018;48.588;10.836;2022-07-24T13:32:48;3.55;;;2.20;;
56141;SDS011;42018;48.588;10.836;2022-07-24T13:35:34;3.40;;;1.90;;
56141;SDS011;42018;48.588;10.836;2022-07-24T13:38:20;4.10;;;2.30;;
56141;SDS011;42018;48.588;10.836;2022-07-24T13:41:05;3.63;;;1.95;;
56141;SDS011;42018;48.588;10.836;2022-07-24T13:43:51;3.10;;;1.77;;
56141;SDS011;42018;48.588;10.836;2022-07-24T13:46:36;3.55;;;2.10;;
56141;SDS011;42018;48.588;10.836;2022-07-24T13:49:22;3.42;;;2.00;;
56141;SDS011;42018;48.588;10.836;2022-07-24T13:52:07;3.58;;;2.10;;
56141;SDS011;42018;48.588;10.836;2022-07-24T13:54:52;3.88;;;2.00;;
56141;SDS011;42018;48.588;10.836;2022-07-24T13:57:38;4.07;;;1.95;;
56141;SDS011;42018;48.588;10.836;2022-07-24T14:00:23;3.92;;;1.98;;
56141;SDS011;42018;48.588;10.836;2022-07-24T14:03:09;3.25;;;1.90;;
56141;SDS011;42018;48.588;10.836;2022-07-24T14:05:55;3.50;;;1.98;;
56141;SDS011;42018;48.588;10.836;2022-07-24T14:08:40;3.33;;;1.90;;
56141;SDS011;42018;48.588;10.836;2022-07-24T14:11:27;4.03;;;2.00;;
56141;SDS011;42018;48.588;10.836;2022-07-24T14:14:15;3.13;;;1.90;;
56141;SDS011;42018;48.588;10.836;2022-07-24T14:17:00;3.20;;;1.95;;
56141;SDS011;42018;48.588;10.836;2022-07-24T14:19:46;3.35;;;2.00;;
56141;SDS011;42018;48.588;10.836;2022-07-24T14:22:31;4.18;;;2.15;;
56141;SDS011;42018;48.588;10.836;2022-07-24T14:25:17;3.33;;;2.03;;
56141;SDS011;42018;48.588;10.836;2022-07-24T14:28:02;3.08;;;1.85;;
56141;SDS011;42018;48.588;10.836;2022-07-24T14:30:48;4.00;;;2.00;;
56141;SDS011;42018;48.588;10.836;2022-07-24T14:33:33;4.65;;;1.90;;
56141;SDS011;42018;48.588;10.836;2022-07-24T14:36:19;3.58;;;1.88;;
56141;SDS011;42018;48.588;10.836;2022-07-24T14:39:04;3.67;;;1.73;;
56141;SDS011;42018;48.588;10.836;2022-07-24T14:41:50;3.42;;;1.90;;
56141;SDS011;42018;48.588;10.836;2022-07-24T14:44:35;3.90;;;1.95;;
56141;SDS011;42018;48.588;10.836;2022-07-24T14:47:21;3.33;;;1.70;;
56141;SDS011;42018;48.588;10.836;2022-07-24T14:50:10;3.83;;;1.90;;
56141;SDS011;42018;48.588;10.836;2022-07-24T14:52:56;4.40;;;1.83;;
56141;SDS011;42018;48.588;10.836;2022-07-24T14:55:41;3.38;;;1.90;;
56141;SDS011;42018;48.588;10.836;2022-07-24T14:58:27;3.30;;;1.80;;
56141;SDS011;42018;48.588;10.836;2022-07-24T15:01:12;3.60;;;1.98;;
56141;SDS011;42018;48.588;10.836;2022-07-24T15:03:57;2.78;;;1.77;;
56141;SDS011;42018;48.588;10.836;2022-07-24T15:06:43;3.20;;;1.75;;
56141;SDS011;42018;48.588;10.836;2022-07-24T15:09:28;4.07;;;1.83;;
56141;SDS011;42018;48.588;10.836;2022-07-24T15:12:14;3.40;;;1.85;;
56141;SDS011;42018;48.588;10.836;2022-07-24T15:15:01;3.42;;;1.90;;
56141;SDS011;42018;48.588;10.836;2022-07-24T15:17:50;3.67;;;2.10;;
56141;SDS011;42018;48.588;10.836;2022-07-24T15:20:35;4.22;;;1.90;;
56141;SDS011;42018;48.588;10.836;2022-07-24T15:23:21;3.60;;;1.95;;
56141;SDS011;42018;48.588;10.836;2022-07-24T15:26:06;3.97;;;1.90;;
56141;SDS011;42018;48.588;10.836;2022-07-24T15:28:52;3.58;;;1.90;;
56141;SDS011;42018;48.588;10.836;2022-07-24T15:31:37;3.70;;;2.05;;
56141;SDS011;42018;48.588;10.836;2022-07-24T15:34:23;3.85;;;2.00;;
56141;SDS011;42018;48.588;10.836;2022-07-24T15:37:08;3.30;;;2.20;;
56141;SDS011;42018;48.588;10.836;2022-07-24T15:39:54;3.35;;;1.98;;
56141;SDS011;42018;48.588;10.836;2022-07-24T15:42:39;4.00;;;2.10;;
56141;SDS011;42018;48.588;10.836;2022-07-24T15:45:25;4.43;;;2.20;;
56141;SDS011;42018;48.588;10.836;2022-07-24T15:48:10;3.85;;;1.95;;
56141;SDS011;42018;48.588;10.836;2022-07-24T15:50:56;3.17;;;2.00;;
56141;SDS011;42018;48.588;10.836;2022-07-24T15:53:42;3.55;;;2.00;;
56141;SDS011;42018;48.588;10.836;2022-07-24T15:56:27;4.13;;;2.10;;
56141;SDS011;42018;48.588;10.836;2022-07-24T15:59:13;3.80;;;1.95;;
56141;SDS011;42018;48.588;10.836;2022-07-24T16:01:58;3.65;;;2.10;;
56141;SDS011;42018;48.588;10.836;2022-07-24T16:04:44;3.72;;;2.00;;
56141;SDS011;42018;48.588;10.836;2022-07-24T16:07:29;3.40;;;1.90;;
56141;SDS011;42018;48.588;10.836;2022-07-24T16:10:15;5.45;;;1.90;;
56141;SDS011;42018;48.588;10.836;2022-07-24T16:13:01;4.10;;;2.00;;
56141;SDS011;42018;48.588;10.836;2022-07-24T16:15:47;4.10;;;2.00;;
56141;SDS011;42018;48.588;10.836;2022-07-24T16:18:32;3.50;;;2.00;;
56141;SDS011;42018;48.588;10.836;2022-07-24T16:21:19;3.35;;;1.90;;
56141;SDS011;42018;48.588;10.836;2022-07-24T16:24:04;4.53;;;2.05;;
56141;SDS011;42018;48.588;10.836;2022-07-24T16:26:50;3.15;;;2.00;;
56141;SDS011;42018;48.588;10.836;2022-07-24T16:29:36;3.63;;;2.10;;
56141;SDS011;42018;48.588;10.836;2022-07-24T16:32:22;3.58;;;2.05;;
56141;SDS011;42018;48.588;10.836;2022-07-24T16:35:07;3.88;;;2.25;;
56141;SDS011;42018;48.588;10.836;2022-07-24T16:37:53;3.92;;;2.30;;
56141;SDS011;42018;48.588;10.836;2022-07-24T16:40:39;5.38;;;2.00;;
56141;SDS011;42018;48.588;10.836;2022-07-24T16:43:24;3.75;;;2.17;;
56141;SDS011;42018;48.588;10.836;2022-07-24T16:46:09;3.85;;;2.10;;
56141;SDS011;42018;48.588;10.836;2022-07-24T16:48:55;3.33;;;1.80;;
56141;SDS011;42018;48.588;10.836;2022-07-24T16:51:40;3.25;;;2.00;;
56141;SDS011;42018;48.588;10.836;2022-07-24T16:54:26;4.00;;;2.20;;
56141;SDS011;42018;48.588;10.836;2022-07-24T16:57:11;4.80;;;2.15;;